Time;durP1;ratioP1;P1;durP2;ratioP2;P2;SDS_P1;SDS_P2;PMS_P1;PMS_P2;Temp;Humidity;BMP_temperature;BMP_pressure;BME280_temperature;BME280_humidity;BME280_pressure;Samples;Min_cycle;Max_cycle;Signal;HPM_P1;HPM_P2
2024/03/16 00:01:55;;;;;;;;;;;;;;;5.34;68.51;95072.63;4979061;28;19921;-62
2024/03/16 00:04:20;;;;;;;;;;;;;;;5.77;68.80;95075.22;4977275;28;20312;-63
2024/03/16 00:06:46;;;;;;;;;;;;;;;6.24;65.36;95071.19;4978019;28;19932;-64
2024/03/16 00:09:11;;;;;;;;;;;;;;;6.06;65.92;95073.16;4978775;28;20552;-63
2024/03/16 00:11:36;;;;;;;;;;;;;;;6.34;64.10;95078.97;4974283;28;20437;-63
2024/03/16 00:14:02;;;;;;;;;;;;;;;6.33;66.17;95064.06;4978422;28;19925;-62
2024/03/16 00:16:30;;;;;;;;;;;;;;;5.37;67.82;95072.28;4974539;28;20406;-62
2024/03/16 00:18:55;;;;;;;;;;;;;;;4.77;72.52;95079.19;4977090;28;20552;-63
2024/03/16 00:21:20;;;;;;;;;;;;;;;4.59;72.09;95080.03;4978149;28;19925;-65
2024/03/16 00:23:46;;;;;;;;;;;;;;;3.87;75.32;95079.09;4975893;28;20383;-64
2024/03/16 00:26:11;;;;;;;;;;;;;;;4.95;71.03;95074.69;4977559;28;20709;-63
2024/03/16 00:28:36;;;;;;;;;;;;;;;4.44;72.71;95077.16;4978545;28;19996;-63
2024/03/16 00:31:03;;;;;;;;;;;;;;;4.68;72.47;95073.88;4977292;28;19936;-63
2024/03/16 00:33:28;;;;;;;;;;;;;;;4.22;74.57;95083.72;4977891;28;19926;-63
2024/03/16 00:35:53;;;;;;;;;;;;;;;4.50;73.22;95081.81;4976868;28;19928;-63
2024/03/16 00:38:19;;;;;;;;;;;;;;;3.68;75.99;95080.88;4978360;28;20051;-64
2024/03/16 00:40:45;;;;;;;;;;;;;;;3.93;75.70;95077.69;4977969;28;20012;-63
2024/03/16 00:43:10;;;;;;;;;;;;;;;4.39;74.20;95077.59;4977967;28;20096;-64
2024/03/16 00:45:35;;;;;;;;;;;;;;;4.41;73.96;95086.19;4977426;28;19960;-63
2024/03/16 00:48:04;;;;;;;;;;;;;;;4.25;74.30;95086.06;4977644;28;19925;-63
2024/03/16 00:50:31;;;;;;;;;;;;;;;4.64;73.28;95075.16;4977430;28;19983;-63
2024/03/16 00:52:56;;;;;;;;;;;;;;;4.61;72.76;95083.38;4975953;28;19928;-63
2024/03/16 00:55:21;;;;;;;;;;;;;;;4.57;72.89;95072.31;4977882;28;19926;-62
2024/03/16 00:57:47;;;;;;;;;;;;;;;4.67;72.77;95082.78;4975769;28;19922;-63
2024/03/16 01:00:14;;;;;;;;;;;;;;;4.63;72.41;95076.13;4978016;28;19991;-63
2024/03/16 01:02:39;;;;;;;;;;;;;;;5.17;70.35;95077.81;4977559;28;19926;-62
2024/03/16 01:05:05;;;;;;;;;;;;;;;4.71;71.84;95091.19;4977123;28;19980;-64
2024/03/16 01:07:30;;;;;;;;;;;;;;;5.21;70.54;95076.50;4976623;28;19932;-64
2024/03/16 01:09:56;;;;;;;;;;;;;;;4.88;71.13;95083.38;4976930;28;20571;-62
2024/03/16 01:12:21;;;;;;;;;;;;;;;4.58;72.80;95081.88;4974838;28;20040;-63
2024/03/16 01:14:46;;;;;;;;;;;;;;;4.64;71.19;95079.59;4972907;28;19925;-63
2024/03/16 01:17:12;;;;;;;;;;;;;;;4.78;70.86;95075.56;4972267;28;19921;-60
2024/03/16 01:19:41;;;;;;;;;;;;;;;5.32;69.54;95082.50;4975386;28;19926;-61
2024/03/16 01:22:06;;;;;;;;;;;;;;;5.08;69.86;95084.88;4978639;28;20364;-61
2024/03/16 01:24:32;;;;;;;;;;;;;;;5.53;68.25;95079.44;4980761;28;19930;-61
2024/03/16 01:26:57;;;;;;;;;;;;;;;4.52;71.15;95079.84;4980295;28;19926;-61
2024/03/16 01:29:22;;;;;;;;;;;;;;;5.53;67.80;95074.16;4979037;28;19933;-59
2024/03/16 01:31:47;;;;;;;;;;;;;;;4.74;70.95;95074.22;4977312;28;20294;-61
2024/03/16 01:34:13;;;;;;;;;;;;;;;5.91;66.51;95076.41;4980630;28;19933;-62
2024/03/16 01:36:38;;;;;;;;;;;;;;;5.32;67.56;95077.22;4977617;28;19934;-60
2024/03/16 01:39:05;;;;;;;;;;;;;;;5.94;65.98;95078.75;4978493;28;19941;-62
2024/03/16 01:41:30;;;;;;;;;;;;;;;5.18;67.06;95079.47;4979477;28;20504;-62
2024/03/16 01:43:57;;;;;;;;;;;;;;;6.02;66.50;95077.91;4980365;28;19930;-61
2024/03/16 01:46:23;;;;;;;;;;;;;;;6.04;65.82;95069.81;4975948;28;19926;-60
2024/03/16 01:48:53;;;;;;;;;;;;;;;6.15;63.85;95077.44;4973717;28;19933;-62
2024/03/16 01:51:18;;;;;;;;;;;;;;;6.58;63.84;95084.44;4976689;28;20415;-60
2024/03/16 01:53:43;;;;;;;;;;;;;;;6.11;64.96;95074.31;4980617;28;20107;-60
2024/03/16 01:56:09;;;;;;;;;;;;;;;6.62;63.40;95077.81;4979110;28;20299;-61
2024/03/16 01:58:42;;;;;;;;;;;;;;;6.72;62.98;95070.56;4980520;28;19922;-60
2024/03/16 02:01:08;;;;;;;;;;;;;;;6.10;63.42;95070.03;4980294;28;19933;-62
2024/03/16 02:03:33;;;;;;;;;;;;;;;6.43;62.37;95071.03;4980787;28;19928;-62
2024/03/16 02:05:59;;;;;;;;;;;;;;;6.98;62.65;95076.63;4979815;28;20387;-61
2024/03/16 02:08:25;;;;;;;;;;;;;;;6.93;61.87;95071.03;4978569;28;19929;-62
2024/03/16 02:10:50;;;;;;;;;;;;;;;6.92;61.94;95061.41;4979747;28;19926;-59
2024/03/16 02:13:15;;;;;;;;;;;;;;;6.49;63.80;95065.09;4979818;28;19965;-61
2024/03/16 02:15:41;;;;;;;;;;;;;;;6.84;63.36;95056.97;4979776;28;20053;-62
2024/03/16 02:18:09;;;;;;;;;;;;;;;6.81;63.27;95067.91;4979289;28;19957;-60
2024/03/16 02:20:34;;;;;;;;;;;;;;;7.08;61.67;95068.50;4977889;28;19929;-62
2024/03/16 02:23:00;;;;;;;;;;;;;;;7.04;62.61;95062.72;4978740;28;19932;-62
2024/03/16 02:25:25;;;;;;;;;;;;;;;6.52;61.98;95071.91;4979182;28;20501;-61
2024/03/16 02:27:50;;;;;;;;;;;;;;;6.89;62.42;95066.06;4980036;28;19925;-64
2024/03/16 02:30:15;;;;;;;;;;;;;;;7.19;61.38;95067.31;4973366;28;19933;-64
2024/03/16 02:32:41;;;;;;;;;;;;;;;7.28;60.26;95066.31;4979424;28;19925;-63
2024/03/16 02:35:09;;;;;;;;;;;;;;;7.24;60.95;95060.50;4976849;28;20574;-65
2024/03/16 02:37:34;;;;;;;;;;;;;;;7.10;60.65;95053.25;4971317;28;20168;-64
2024/03/16 02:40:00;;;;;;;;;;;;;;;6.86;61.48;95068.22;4978598;28;20450;-66
2024/03/16 02:42:25;;;;;;;;;;;;;;;6.55;62.80;95069.75;4977729;28;20028;-63
2024/03/16 02:44:52;;;;;;;;;;;;;;;6.06;66.17;95062.59;4968749;28;19937;-64
2024/03/16 02:47:17;;;;;;;;;;;;;;;5.68;66.12;95065.63;4976599;28;19926;-63
2024/03/16 02:49:42;;;;;;;;;;;;;;;5.67;66.21;95072.72;4979010;28;19976;-63
2024/03/16 02:52:09;;;;;;;;;;;;;;;4.89;68.97;95067.41;4979331;28;19932;-64
2024/03/16 02:54:34;;;;;;;;;;;;;;;5.40;68.39;95079.88;4974373;28;19925;-66
2024/03/16 02:56:59;;;;;;;;;;;;;;;4.85;70.35;95076.59;4972828;28;19926;-62
2024/03/16 02:59:25;;;;;;;;;;;;;;;5.00;69.50;95076.84;4973965;28;20033;-62
2024/03/16 03:01:50;;;;;;;;;;;;;;;4.99;69.25;95084.94;4970868;28;20462;-62
2024/03/16 03:04:15;;;;;;;;;;;;;;;5.24;67.54;95078.03;4975215;28;19933;-62
2024/03/16 03:06:40;;;;;;;;;;;;;;;4.97;68.42;95091.19;4974839;28;20000;-63
2024/03/16 03:09:09;;;;;;;;;;;;;;;4.57;71.38;95085.50;4975622;28;20715;-65
2024/03/16 03:11:37;;;;;;;;;;;;;;;4.22;71.84;95081.09;4976428;28;20518;-64
2024/03/16 03:14:02;;;;;;;;;;;;;;;4.18;73.70;95093.72;4970014;28;20227;-64
2024/03/16 03:16:28;;;;;;;;;;;;;;;4.37;72.26;95094.53;4978611;28;19925;-64
2024/03/16 03:18:53;;;;;;;;;;;;;;;4.15;73.08;95096.66;4972115;28;20016;-65
2024/03/16 03:21:19;;;;;;;;;;;;;;;3.89;73.45;95098.25;4979658;28;19925;-63
2024/03/16 03:23:44;;;;;;;;;;;;;;;3.78;75.94;95116.88;4979255;28;20350;-64
2024/03/16 03:26:09;;;;;;;;;;;;;;;3.80;74.23;95099.09;4979376;28;19930;-63
2024/03/16 03:28:35;;;;;;;;;;;;;;;3.65;74.60;95109.31;4978765;28;19918;-62
2024/03/16 03:31:01;;;;;;;;;;;;;;;3.63;75.15;95109.47;4979800;28;19929;-65
2024/03/16 03:33:26;;;;;;;;;;;;;;;3.66;75.73;95114.44;4978807;28;19926;-66
2024/03/16 03:35:51;;;;;;;;;;;;;;;3.76;75.20;95108.28;4977080;28;20490;-63
2024/03/16 03:38:16;;;;;;;;;;;;;;;3.61;75.93;95105.31;4978673;28;20315;-60
2024/03/16 03:40:42;;;;;;;;;;;;;;;3.78;76.17;95117.69;4978406;28;19984;-60
2024/03/16 03:43:17;;;;;;;;;;;;;;;3.52;76.12;95121.03;4974902;28;20070;-60
2024/03/16 03:50:47;;;;;;;;;;;;;;;4.16;74.49;95116.75;4978967;28;20199;-60
2024/03/16 03:53:13;;;;;;;;;;;;;;;4.21;74.78;95103.16;4971478;28;19921;-63
2024/03/16 03:55:38;;;;;;;;;;;;;;;3.65;74.27;95112.78;4972359;28;19932;-61
2024/03/16 03:58:03;;;;;;;;;;;;;;;3.11;76.47;95126.56;4974064;28;19979;-61
2024/03/16 04:00:29;;;;;;;;;;;;;;;3.60;77.50;95117.66;4971368;28;19937;-60
2024/03/16 04:02:54;;;;;;;;;;;;;;;3.85;75.50;95114.47;4977242;28;20397;-62
2024/03/16 04:05:19;;;;;;;;;;;;;;;4.07;73.79;95121.13;4976306;28;20359;-62
2024/03/16 04:07:44;;;;;;;;;;;;;;;4.26;72.57;95114.06;4974687;28;19926;-62
2024/03/16 04:10:10;;;;;;;;;;;;;;;3.44;74.26;95134.06;4972170;28;19936;-63
2024/03/16 04:12:35;;;;;;;;;;;;;;;3.23;77.17;95129.81;4973312;28;19981;-61
2024/03/16 04:15:00;;;;;;;;;;;;;;;3.01;78.14;95126.59;4974323;28;20004;-60
2024/03/16 04:17:26;;;;;;;;;;;;;;;3.80;75.76;95120.19;4977623;28;20745;-61
2024/03/16 04:19:51;;;;;;;;;;;;;;;3.68;75.50;95124.84;4975004;28;19925;-61
2024/03/16 04:22:17;;;;;;;;;;;;;;;3.39;77.47;95128.38;4976945;28;20613;-62
2024/03/16 04:24:42;;;;;;;;;;;;;;;3.66;77.11;95119.72;4976159;28;19927;-60
2024/03/16 04:27:07;;;;;;;;;;;;;;;3.20;78.75;95135.38;4979117;28;20097;-61
2024/03/16 04:29:32;;;;;;;;;;;;;;;3.61;77.97;95136.91;4972785;28;19925;-60
2024/03/16 04:31:58;;;;;;;;;;;;;;;3.54;77.39;95136.69;4975022;28;19933;-62
2024/03/16 04:34:25;;;;;;;;;;;;;;;4.03;75.17;95130.31;4973160;28;19922;-62
2024/03/16 04:36:51;;;;;;;;;;;;;;;3.54;76.84;95147.22;4977320;28;19930;-61
2024/03/16 04:39:16;;;;;;;;;;;;;;;3.65;76.50;95151.44;4979269;28;19925;-62
2024/03/16 04:41:42;;;;;;;;;;;;;;;3.78;75.15;95145.84;4975370;28;20589;-62
2024/03/16 04:44:07;;;;;;;;;;;;;;;4.12;74.65;95141.75;4972221;28;19968;-62
2024/03/16 04:46:33;;;;;;;;;;;;;;;3.92;75.02;95150.59;4976815;28;19933;-61
2024/03/16 04:48:58;;;;;;;;;;;;;;;3.33;77.28;95147.41;4968505;28;19926;-59
2024/03/16 04:51:23;;;;;;;;;;;;;;;3.97;74.55;95139.63;4977068;28;19924;-61
2024/03/16 04:53:49;;;;;;;;;;;;;;;3.86;75.11;95145.09;4977114;28;20433;-61
2024/03/16 04:56:14;;;;;;;;;;;;;;;3.46;78.82;95154.97;4976018;28;19930;-61
2024/03/16 04:58:39;;;;;;;;;;;;;;;4.08;75.94;95138.56;4981987;28;20331;-62
2024/03/16 05:01:05;;;;;;;;;;;;;;;4.28;74.68;95144.56;4976703;28;19929;-61
2024/03/16 05:03:30;;;;;;;;;;;;;;;4.14;74.29;95156.44;4982363;28;19926;-61
2024/03/16 05:05:56;;;;;;;;;;;;;;;4.29;72.90;95142.75;4977867;28;20568;-62
2024/03/16 05:08:21;;;;;;;;;;;;;;;3.62;75.81;95152.56;4978644;28;19926;-63
2024/03/16 05:10:52;;;;;;;;;;;;;;;3.77;76.11;95152.06;4977039;28;20529;-62
2024/03/16 05:13:17;;;;;;;;;;;;;;;3.11;78.03;95150.22;4976711;28;19953;-61
2024/03/16 05:15:43;;;;;;;;;;;;;;;2.99;78.75;95144.28;4978295;28;20316;-61
2024/03/16 05:18:08;;;;;;;;;;;;;;;4.02;76.16;95145.25;4974577;28;19933;-61
2024/03/16 05:20:33;;;;;;;;;;;;;;;4.09;74.23;95137.63;4979442;28;19922;-61
2024/03/16 05:23:00;;;;;;;;;;;;;;;3.84;76.49;95141.78;4975534;28;19932;-62
2024/03/16 05:25:26;;;;;;;;;;;;;;;4.42;73.51;95135.28;4975157;28;19965;-60
2024/03/16 05:27:51;;;;;;;;;;;;;;;4.46;72.76;95138.47;4973241;28;19976;-62
2024/03/16 05:30:16;;;;;;;;;;;;;;;4.22;74.17;95139.88;4974503;28;19922;-62
2024/03/16 05:32:42;;;;;;;;;;;;;;;4.07;73.21;95143.03;4974864;28;19965;-62
2024/03/16 05:35:08;;;;;;;;;;;;;;;3.99;74.43;95144.75;4980635;28;20398;-62
2024/03/16 05:37:33;;;;;;;;;;;;;;;4.07;75.79;95158.84;4978763;28;19925;-61
2024/03/16 05:39:59;;;;;;;;;;;;;;;4.17;75.59;95164.06;4982002;28;19921;-60
2024/03/16 05:42:24;;;;;;;;;;;;;;;3.95;75.09;95162.66;4978358;28;19929;-62
2024/03/16 05:44:50;;;;;;;;;;;;;;;3.61;75.98;95169.31;4976868;28;20518;-60
2024/03/16 05:47:20;;;;;;;;;;;;;;;3.84;76.13;95168.94;4977840;28;19922;-62
2024/03/16 05:49:46;;;;;;;;;;;;;;;3.87;77.05;95168.66;4969680;28;19960;-62
2024/03/16 05:52:11;;;;;;;;;;;;;;;3.77;76.85;95186.28;4978329;28;19960;-59
2024/03/16 05:54:36;;;;;;;;;;;;;;;3.24;79.04;95178.88;4970384;28;19926;-62
2024/03/16 05:57:03;;;;;;;;;;;;;;;3.49;79.07;95192.38;4978778;28;19976;-62
2024/03/16 05:59:28;;;;;;;;;;;;;;;3.13;82.74;95184.28;4977942;28;20649;-62
2024/03/16 06:01:54;;;;;;;;;;;;;;;3.86;77.57;95187.22;4981089;28;20028;-60
2024/03/16 06:04:19;;;;;;;;;;;;;;;3.92;76.10;95190.09;4974050;28;20024;-63
2024/03/16 06:06:46;;;;;;;;;;;;;;;3.42;77.21;95197.38;4975535;28;19921;-62
2024/03/16 06:09:11;;;;;;;;;;;;;;;4.02;75.93;95191.88;4973773;28;19930;-60
2024/03/16 06:11:37;;;;;;;;;;;;;;;3.80;76.52;95196.53;4979766;28;20101;-61
2024/03/16 06:14:02;;;;;;;;;;;;;;;3.78;76.81;95203.78;4977459;28;20147;-63
2024/03/16 06:16:27;;;;;;;;;;;;;;;3.59;76.91;95205.50;4978975;28;19917;-61
2024/03/16 06:18:53;;;;;;;;;;;;;;;3.37;78.69;95215.38;4971582;28;20549;-63
2024/03/16 06:21:18;;;;;;;;;;;;;;;3.59;76.45;95216.03;4972307;28;19926;-61
2024/03/16 06:23:44;;;;;;;;;;;;;;;3.72;76.30;95230.69;4973042;28;20009;-63
2024/03/16 06:26:16;;;;;;;;;;;;;;;3.21;78.60;95226.50;4977349;28;19944;-60
2024/03/16 06:28:43;;;;;;;;;;;;;;;2.60;81.58;95226.69;4978926;28;19918;-60
2024/03/16 06:31:10;;;;;;;;;;;;;;;2.75;80.18;95224.47;4972345;28;19928;-60
2024/03/16 06:33:36;;;;;;;;;;;;;;;3.43;78.59;95229.75;4973033;28;19925;-62
2024/03/16 06:36:02;;;;;;;;;;;;;;;2.92;80.84;95237.88;4978728;28;20559;-61
2024/03/16 06:38:29;;;;;;;;;;;;;;;3.18;80.05;95242.56;4973940;28;19979;-63
2024/03/16 06:40:55;;;;;;;;;;;;;;;2.49;82.62;95232.88;4978261;28;19937;-62
2024/03/16 06:43:20;;;;;;;;;;;;;;;2.30;82.77;95244.19;4972373;28;20363;-62
2024/03/16 06:45:45;;;;;;;;;;;;;;;2.17;84.78;95259.38;4976558;28;19925;-62
2024/03/16 06:48:10;;;;;;;;;;;;;;;2.07;84.98;95254.91;4974547;28;19936;-60
2024/03/16 06:50:36;;;;;;;;;;;;;;;1.92;86.10;95254.47;4974222;28;20356;-59
2024/03/16 06:53:01;;;;;;;;;;;;;;;1.94;86.84;95270.09;4974126;28;19980;-60
2024/03/16 06:55:27;;;;;;;;;;;;;;;1.93;87.27;95268.41;4979766;28;20334;-60
2024/03/16 06:57:52;;;;;;;;;;;;;;;1.93;87.68;95268.41;4969617;28;19953;-61
2024/03/16 07:00:17;;;;;;;;;;;;;;;2.63;84.99;95271.06;4990905;28;20295;-62
2024/03/16 07:02:43;;;;;;;;;;;;;;;2.07;85.73;95278.56;4969786;28;20017;-59
2024/03/16 07:05:09;;;;;;;;;;;;;;;2.60;84.64;95274.00;4977113;28;19925;-61
2024/03/16 07:07:34;;;;;;;;;;;;;;;2.74;83.72;95282.44;4978240;28;19930;-62
2024/03/16 07:09:59;;;;;;;;;;;;;;;2.53;86.30;95293.91;4972079;28;19925;-64
2024/03/16 07:12:25;;;;;;;;;;;;;;;2.73;84.15;95286.03;4975922;28;20365;-62
2024/03/16 07:14:50;;;;;;;;;;;;;;;2.57;85.08;95297.91;4974218;28;19926;-62
2024/03/16 07:17:15;;;;;;;;;;;;;;;2.24;85.99;95297.25;4975833;28;19996;-62
2024/03/16 07:19:40;;;;;;;;;;;;;;;2.10;87.88;95301.09;4970008;28;20017;-62
2024/03/16 07:22:06;;;;;;;;;;;;;;;2.56;86.28;95314.66;4976048;28;20606;-64
2024/03/16 07:24:31;;;;;;;;;;;;;;;2.67;85.11;95297.09;4976936;28;19930;-62
2024/03/16 07:26:56;;;;;;;;;;;;;;;1.96;88.04;95310.16;4974899;28;19980;-62
2024/03/16 07:29:21;;;;;;;;;;;;;;;2.51;87.33;95309.78;4977300;28;19922;-63
2024/03/16 07:31:49;;;;;;;;;;;;;;;2.09;88.27;95312.56;4970944;28;20466;-61
2024/03/16 07:34:15;;;;;;;;;;;;;;;2.18;87.62;95324.09;4975803;28;20020;-63
2024/03/16 07:36:40;;;;;;;;;;;;;;;2.20;87.28;95325.59;4972126;28;20004;-64
2024/03/16 07:39:09;;;;;;;;;;;;;;;1.98;89.69;95347.63;4977619;28;20096;-64
2024/03/16 07:41:35;;;;;;;;;;;;;;;2.01;90.26;95334.25;4971172;28;20591;-63
2024/03/16 07:44:00;;;;;;;;;;;;;;;2.03;89.53;95336.72;4972000;28;19926;-64
2024/03/16 07:46:25;;;;;;;;;;;;;;;2.25;88.54;95341.78;4971015;28;19925;-62
2024/03/16 07:48:52;;;;;;;;;;;;;;;2.12;89.25;95339.38;4973878;28;20182;-61
2024/03/16 07:51:17;;;;;;;;;;;;;;;2.64;86.91;95345.50;4968477;28;19921;-62
2024/03/16 07:53:42;;;;;;;;;;;;;;;2.48;87.22;95341.59;4975448;28;20634;-62
2024/03/16 07:56:09;;;;;;;;;;;;;;;2.31;87.67;95350.13;4972553;28;20331;-63
2024/03/16 07:58:36;;;;;;;;;;;;;;;2.01;89.41;95358.69;4974892;28;20579;-61
2024/03/16 08:01:01;;;;;;;;;;;;;;;2.10;89.54;95348.38;4974571;28;20587;-61
2024/03/16 08:03:26;;;;;;;;;;;;;;;2.36;88.27;95354.03;4977947;28;20020;-62
2024/03/16 08:05:52;;;;;;;;;;;;;;;2.14;89.65;95361.13;4971785;28;20639;-63
2024/03/16 08:08:17;;;;;;;;;;;;;;;1.77;91.16;95372.09;4971691;28;19967;-62
2024/03/16 08:10:42;;;;;;;;;;;;;;;2.16;90.91;95357.50;4970986;28;19941;-61
2024/03/16 08:13:07;;;;;;;;;;;;;;;1.56;91.73;95375.56;4977373;28;20547;-62
2024/03/16 08:15:33;;;;;;;;;;;;;;;1.42;95.10;95373.22;4974965;28;19922;-63
2024/03/16 08:18:00;;;;;;;;;;;;;;;1.63;94.90;95365.38;4977598;28;19930;-63
2024/03/16 08:20:25;;;;;;;;;;;;;;;1.43;94.90;95373.09;4981029;28;20000;-62
2024/03/16 08:22:54;;;;;;;;;;;;;;;1.92;93.62;95379.66;4975957;28;20650;-61
2024/03/16 08:25:22;;;;;;;;;;;;;;;1.64;93.21;95374.09;4979206;28;19934;-62
2024/03/16 08:27:47;;;;;;;;;;;;;;;1.39;94.96;95400.53;4977678;28;20044;-61
2024/03/16 08:30:12;;;;;;;;;;;;;;;1.36;95.39;95391.13;4982342;28;20028;-60
2024/03/16 08:32:38;;;;;;;;;;;;;;;1.74;93.41;95399.44;4981767;28;19964;-60
2024/03/16 08:35:04;;;;;;;;;;;;;;;1.34;94.55;95415.81;4981402;28;19933;-59
2024/03/16 08:37:29;;;;;;;;;;;;;;;1.17;94.89;95452.13;4985195;28;20422;-61
2024/03/16 08:39:54;;;;;;;;;;;;;;;0.71;94.48;95446.09;4981527;28;19933;-60
2024/03/16 08:42:20;;;;;;;;;;;;;;;-0.02;95.58;95438.56;4982245;28;20391;-60
2024/03/16 08:44:45;;;;;;;;;;;;;;;0.14;94.47;95453.97;4982615;28;19981;-61
2024/03/16 08:47:10;;;;;;;;;;;;;;;0.22;93.43;95483.00;4982922;28;19933;-61
2024/03/16 08:49:35;;;;;;;;;;;;;;;0.11;94.01;95473.38;4982336;28;19922;-61
2024/03/16 08:52:01;;;;;;;;;;;;;;;0.15;95.31;95468.72;4978521;28;19930;-62
2024/03/16 08:54:26;;;;;;;;;;;;;;;0.12;95.18;95482.03;4980907;28;20519;-62
2024/03/16 08:56:51;;;;;;;;;;;;;;;0.54;93.83;95487.56;4981996;28;19936;-61
2024/03/16 08:59:17;;;;;;;;;;;;;;;0.34;93.28;95481.22;4982670;28;19922;-59
2024/03/16 09:01:43;;;;;;;;;;;;;;;0.11;94.89;95485.59;4981437;28;19961;-61
2024/03/16 09:04:08;;;;;;;;;;;;;;;0.26;93.83;95509.78;4982066;28;19949;-61
2024/03/16 09:06:37;;;;;;;;;;;;;;;0.48;92.98;95495.88;4982328;28;19922;-62
2024/03/16 09:09:03;;;;;;;;;;;;;;;0.58;92.31;95503.91;4978820;28;20438;-61
2024/03/16 09:11:31;;;;;;;;;;;;;;;0.91;89.36;95504.84;4982831;28;19922;-61
2024/03/16 09:13:56;;;;;;;;;;;;;;;1.34;88.38;95505.03;4982173;28;19937;-62
2024/03/16 09:16:21;;;;;;;;;;;;;;;1.07;88.59;95514.97;4982522;28;20015;-59
2024/03/16 09:18:46;;;;;;;;;;;;;;;1.10;87.10;95519.94;4979619;28;20429;-62
2024/03/16 09:21:12;;;;;;;;;;;;;;;0.78;88.30;95518.06;4981637;28;19922;-63
2024/03/16 09:23:37;;;;;;;;;;;;;;;0.66;88.00;95519.03;4981816;28;19931;-60
2024/03/16 09:26:03;;;;;;;;;;;;;;;0.67;89.47;95523.31;4980100;28;19926;-60
2024/03/16 09:28:29;;;;;;;;;;;;;;;0.66;89.16;95527.72;4979027;28;19926;-60
2024/03/16 09:30:55;;;;;;;;;;;;;;;0.66;89.63;95537.38;4981601;28;19929;-63
2024/03/16 09:33:21;;;;;;;;;;;;;;;0.94;89.40;95541.31;4981435;28;20384;-63
2024/03/16 09:35:46;;;;;;;;;;;;;;;1.05;87.89;95545.72;4981648;28;19926;-62
2024/03/16 09:38:12;;;;;;;;;;;;;;;0.64;88.79;95542.72;4981442;28;20105;-62
2024/03/16 09:40:43;;;;;;;;;;;;;;;0.44;88.30;95552.09;4979800;28;20025;-64
2024/03/16 09:43:09;;;;;;;;;;;;;;;0.38;91.08;95545.53;4980204;28;19926;-63
2024/03/16 09:45:34;;;;;;;;;;;;;;;0.29;90.85;95549.69;4981852;28;20746;-63
2024/03/16 09:47:59;;;;;;;;;;;;;;;0.59;91.04;95553.53;4978886;28;19926;-63
2024/03/16 09:50:25;;;;;;;;;;;;;;;0.46;91.45;95558.91;4980143;28;20623;-62
2024/03/16 09:52:50;;;;;;;;;;;;;;;-0.22;91.10;95585.69;4979793;28;19917;-64
2024/03/16 09:55:16;;;;;;;;;;;;;;;-0.14;89.85;95579.88;4983467;28;19921;-62
2024/03/16 09:57:43;;;;;;;;;;;;;;;0.07;89.57;95577.47;4978319;28;19937;-63
2024/03/16 10:00:14;;;;;;;;;;;;;;;0.19;88.94;95578.34;4983142;28;20008;-63
2024/03/16 10:02:39;;;;;;;;;;;;;;;0.64;90.14;95578.56;4981159;28;20402;-62
2024/03/16 10:05:05;;;;;;;;;;;;;;;0.36;92.32;95578.88;4983122;28;19930;-64
2024/03/16 10:07:31;;;;;;;;;;;;;;;0.75;90.36;95577.75;4982924;28;19967;-63
2024/03/16 10:09:56;;;;;;;;;;;;;;;0.78;89.44;95586.22;4986776;28;19984;-62
2024/03/16 10:12:23;;;;;;;;;;;;;;;0.72;85.94;95584.06;4985810;28;20373;-65
2024/03/16 10:15:00;;;;;;;;;;;;;;;1.05;84.70;95582.41;4981182;28;19933;-63
2024/03/16 10:17:25;;;;;;;;;;;;;;;1.07;84.63;95601.50;4980752;28;20687;-62
2024/03/16 10:19:52;;;;;;;;;;;;;;;0.89;83.57;95589.81;4980834;28;19979;-64
2024/03/16 10:22:17;;;;;;;;;;;;;;;0.69;84.49;95603.47;4981918;28;20478;-62
2024/03/16 10:24:43;;;;;;;;;;;;;;;0.61;82.89;95612.88;4980284;28;20038;-62
2024/03/16 10:27:08;;;;;;;;;;;;;;;0.98;83.83;95595.19;4979896;28;20550;-62
2024/03/16 10:29:33;;;;;;;;;;;;;;;0.84;84.19;95614.59;4978363;28;19926;-62
2024/03/16 10:32:00;;;;;;;;;;;;;;;1.19;83.02;95609.38;4979942;28;19921;-64
2024/03/16 10:34:26;;;;;;;;;;;;;;;1.28;78.81;95606.03;4989796;28;19925;-64
2024/03/16 10:36:51;;;;;;;;;;;;;;;1.53;77.54;95619.84;4978976;28;20633;-61
2024/03/16 10:39:16;;;;;;;;;;;;;;;0.98;78.45;95620.53;4989048;28;20348;-64
2024/03/16 10:41:42;;;;;;;;;;;;;;;0.58;78.10;95619.19;4994516;28;19930;-64
2024/03/16 10:44:07;;;;;;;;;;;;;;;0.93;79.49;95626.16;4991871;28;19922;-63
2024/03/16 10:46:34;;;;;;;;;;;;;;;0.89;75.70;95635.19;4995466;28;20642;-62
2024/03/16 10:49:00;;;;;;;;;;;;;;;0.64;71.99;95633.59;4978509;28;19932;-62
2024/03/16 10:51:25;;;;;;;;;;;;;;;0.67;73.70;95631.59;4980850;28;19910;-64
2024/03/16 10:53:51;;;;;;;;;;;;;;;0.53;74.68;95653.59;4979902;28;20022;-63
2024/03/16 10:56:17;;;;;;;;;;;;;;;0.94;73.81;95651.41;4977748;28;19929;-63
2024/03/16 10:58:42;;;;;;;;;;;;;;;1.21;74.66;95639.78;4980416;28;19944;-63
2024/03/16 11:01:15;;;;;;;;;;;;;;;1.70;71.43;95638.72;4980100;28;19934;-63
2024/03/16 11:03:42;;;;;;;;;;;;;;;1.95;71.95;95647.25;4989250;28;20443;-62
2024/03/16 11:06:11;;;;;;;;;;;;;;;2.23;69.83;95643.22;4978735;28;19926;-62
2024/03/16 11:08:42;;;;;;;;;;;;;;;2.50;68.94;95643.72;4979930;28;19922;-63
2024/03/16 11:11:08;;;;;;;;;;;;;;;1.90;67.82;95646.78;4980489;28;20003;-63
2024/03/16 11:13:33;;;;;;;;;;;;;;;1.47;70.14;95660.50;4979508;28;20337;-62
2024/03/16 11:15:58;;;;;;;;;;;;;;;1.50;69.72;95681.25;4978730;28;19928;-64
2024/03/16 11:18:24;;;;;;;;;;;;;;;1.15;70.34;95678.72;4979367;28;19921;-62
2024/03/16 11:20:55;;;;;;;;;;;;;;;1.49;70.23;95686.63;4981878;28;19922;-62
2024/03/16 11:23:24;;;;;;;;;;;;;;;1.56;69.99;95692.25;4980358;28;19914;-64
2024/03/16 11:25:49;;;;;;;;;;;;;;;2.22;67.54;95698.50;4979279;28;20521;-63
2024/03/16 11:28:15;;;;;;;;;;;;;;;2.37;67.98;95685.91;4980187;28;19918;-63
2024/03/16 11:30:40;;;;;;;;;;;;;;;2.75;65.82;95689.84;4979576;28;19933;-63
2024/03/16 11:33:23;;;;;;;;;;;;;;;2.02;66.67;95706.19;4979604;28;19933;-62
2024/03/16 11:35:52;;;;;;;;;;;;;;;2.08;69.16;95724.06;4972697;28;20447;-64
2024/03/16 11:38:21;;;;;;;;;;;;;;;1.75;69.63;95717.91;4978705;28;19930;-62
2024/03/16 11:40:50;;;;;;;;;;;;;;;1.69;71.28;95718.38;4974225;28;19930;-62
2024/03/16 11:43:15;;;;;;;;;;;;;;;1.11;74.68;95723.56;4979343;28;19934;-63
2024/03/16 11:45:41;;;;;;;;;;;;;;;0.75;77.54;95729.78;4978738;28;20000;-62
2024/03/16 11:48:10;;;;;;;;;;;;;;;0.96;78.38;95732.59;4977204;28;19921;-63
2024/03/16 11:50:35;;;;;;;;;;;;;;;1.04;78.45;95735.47;4979502;28;19929;-62
2024/03/16 11:53:02;;;;;;;;;;;;;;;1.49;77.29;95733.88;4975393;28;20559;-64
2024/03/16 11:55:29;;;;;;;;;;;;;;;1.62;76.49;95737.25;4979650;28;20017;-61
2024/03/16 11:57:56;;;;;;;;;;;;;;;1.24;77.45;95733.13;4978726;28;20412;-62
2024/03/16 12:00:22;;;;;;;;;;;;;;;0.60;79.24;95753.53;4978337;28;20040;-63
2024/03/16 12:02:48;;;;;;;;;;;;;;;0.91;80.05;95753.91;4978111;28;20068;-64
2024/03/16 12:05:13;;;;;;;;;;;;;;;0.95;79.56;95771.06;4978290;28;19934;-62
2024/03/16 12:07:39;;;;;;;;;;;;;;;0.70;79.67;95759.78;4979774;28;20430;-62
2024/03/16 12:10:11;;;;;;;;;;;;;;;0.20;82.08;95778.19;4976027;28;19929;-63
2024/03/16 12:12:36;;;;;;;;;;;;;;;0.50;83.85;95769.09;4983571;28;19921;-64
2024/03/16 12:15:14;;;;;;;;;;;;;;;0.69;82.09;95775.63;4978768;28;20634;-63
2024/03/16 12:17:46;;;;;;;;;;;;;;;0.51;83.74;95790.91;4978894;28;19926;-64
2024/03/16 12:20:11;;;;;;;;;;;;;;;0.75;83.42;95784.81;4979595;28;19926;-61
2024/03/16 12:22:47;;;;;;;;;;;;;;;1.11;82.03;95778.66;4979244;28;19929;-61
2024/03/16 12:25:13;;;;;;;;;;;;;;;1.05;82.79;95781.72;4979971;28;19936;-64
2024/03/16 12:27:39;;;;;;;;;;;;;;;1.28;77.75;95780.94;4983804;28;19917;-61
2024/03/16 12:30:05;;;;;;;;;;;;;;;1.71;78.90;95787.38;4978930;28;20022;-64
2024/03/16 12:32:30;;;;;;;;;;;;;;;1.56;77.93;95791.97;4980320;28;20838;-63
2024/03/16 12:34:55;;;;;;;;;;;;;;;1.64;76.43;95788.78;4975262;28;19925;-61
2024/03/16 12:37:20;;;;;;;;;;;;;;;1.50;75.17;95786.22;4977381;28;19957;-61
2024/03/16 12:39:46;;;;;;;;;;;;;;;1.96;75.18;95782.84;4978173;28;20400;-64
2024/03/16 12:42:11;;;;;;;;;;;;;;;1.58;74.12;95800.59;4977954;28;20670;-61
2024/03/16 12:44:36;;;;;;;;;;;;;;;1.67;73.59;95804.31;4978821;28;20396;-62
2024/03/16 12:47:01;;;;;;;;;;;;;;;1.56;73.83;95792.84;4978531;28;20028;-62
2024/03/16 12:49:27;;;;;;;;;;;;;;;1.56;74.09;95797.22;4977740;28;19926;-62
2024/03/16 12:51:52;;;;;;;;;;;;;;;2.61;70.02;95790.88;4979467;28;20421;-64
2024/03/16 12:54:17;;;;;;;;;;;;;;;2.69;69.70;95805.19;4978979;28;19922;-63
2024/03/16 12:56:47;;;;;;;;;;;;;;;3.17;69.65;95801.31;4977369;28;19926;-64